Weather at University of New Mexico Hospital Heliport

Public forecast

Using degrees Fahrenheit for public forecast. Weather courtesy of forecast.io.

Closest aviation weather report (METAR) to University of New Mexico Hospital Heliport

Report is more than 6 hours old.

Closest report is Albuquerque International Sunport, 2.9 nm (5.4 km) S.

2024/06/24 05:52 (retrieved 1 day ago)

KABQ 240552Z 07003KT 10SM BKN130 27/12 A3018 RMK AO2 SLP131 60000 T02670122 10294 20267 51014

Closest aviation forecast (TAF) to University of New Mexico Hospital Heliport

Forecast is more than 6 hours old.

Closest forecast is Albuquerque International Sunport, 2.9 nm (5.4 km) S.

2024/06/24 21:03 Ammendment (retrieved 11 hours ago)

TAF AMD KABQ 242100Z 2421/2518 27008KT P6SM VCSH SCT120 TEMPO 2421/2424 VRB15G25KT -TSRA BKN080CB FM250100 22012G20KT P6SM BKN100 FM250600 14005KT P6SM BKN100 FM251200 35004KT P6SM SCT100